sensor_id;sensor_type;location;lat;lon;timestamp;temperature;humidity
16728;DHT22;8482;54.396;18.590;2023-03-19T00:00:17;9.90;98.00
16728;DHT22;8482;54.396;18.590;2023-03-19T00:02:43;10.00;98.00
16728;DHT22;8482;54.396;18.590;2023-03-19T00:05:14;10.00;98.00
16728;DHT22;8482;54.396;18.590;2023-03-19T00:07:40;9.90;98.00
16728;DHT22;8482;54.396;18.590;2023-03-19T00:10:06;9.90;98.00
16728;DHT22;8482;54.396;18.590;2023-03-19T00:12:32;10.00;98.00
16728;DHT22;8482;54.396;18.590;2023-03-19T00:14:58;10.00;98.00
16728;DHT22;8482;54.396;18.590;2023-03-19T00:17:24;10.00;98.00
16728;DHT22;8482;54.396;18.590;2023-03-19T00:19:50;10.00;98.00
16728;DHT22;8482;54.396;18.590;2023-03-19T00:22:16;10.00;98.00
16728;DHT22;8482;54.396;18.590;2023-03-19T00:24:41;10.00;98.00
16728;DHT22;8482;54.396;18.590;2023-03-19T00:27:07;10.00;98.10
16728;DHT22;8482;54.396;18.590;2023-03-19T00:29:33;9.90;98.10
16728;DHT22;8482;54.396;18.590;2023-03-19T00:31:59;9.90;98.10
16728;DHT22;8482;54.396;18.590;2023-03-19T00:34:25;9.90;98.20
16728;DHT22;8482;54.396;18.590;2023-03-19T00:36:51;9.80;98.20
16728;DHT22;8482;54.396;18.590;2023-03-19T00:39:17;9.80;98.20
16728;DHT22;8482;54.396;18.590;2023-03-19T00:41:43;9.80;98.40
16728;DHT22;8482;54.396;18.590;2023-03-19T00:44:17;9.80;98.50
16728;DHT22;8482;54.396;18.590;2023-03-19T00:46:44;9.80;98.50
16728;DHT22;8482;54.396;18.590;2023-03-19T00:49:10;9.70;98.50
16728;DHT22;8482;54.396;18.590;2023-03-19T00:51:36;9.70;98.50
16728;DHT22;8482;54.396;18.590;2023-03-19T00:54:02;9.60;98.60
16728;DHT22;8482;54.396;18.590;2023-03-19T00:56:28;9.60;98.60
16728;DHT22;8482;54.396;18.590;2023-03-19T00:58:55;9.60;98.70
16728;DHT22;8482;54.396;18.590;2023-03-19T01:01:21;9.60;98.80
16728;DHT22;8482;54.396;18.590;2023-03-19T01:03:47;9.50;98.70
16728;DHT22;8482;54.396;18.590;2023-03-19T01:06:13;9.50;98.60
16728;DHT22;8482;54.396;18.590;2023-03-19T01:08:39;9.40;98.70
16728;DHT22;8482;54.396;18.590;2023-03-19T01:11:13;9.40;98.90
16728;DHT22;8482;54.396;18.590;2023-03-19T01:13:41;9.30;99.10
16728;DHT22;8482;54.396;18.590;2023-03-19T01:16:08;9.30;99.20
16728;DHT22;8482;54.396;18.590;2023-03-19T01:18:34;9.30;99.30
16728;DHT22;8482;54.396;18.590;2023-03-19T01:21:01;9.20;99.40
16728;DHT22;8482;54.396;18.590;2023-03-19T01:23:27;9.20;99.60
16728;DHT22;8482;54.396;18.590;2023-03-19T01:25:52;9.20;99.70
16728;DHT22;8482;54.396;18.590;2023-03-19T01:28:19;9.10;99.80
16728;DHT22;8482;54.396;18.590;2023-03-19T01:30:45;9.00;99.80
16728;DHT22;8482;54.396;18.590;2023-03-19T01:33:11;9.00;99.90
16728;DHT22;8482;54.396;18.590;2023-03-19T01:35:36;8.90;99.90
16728;DHT22;8482;54.396;18.590;2023-03-19T01:38:03;8.90;99.90
16728;DHT22;8482;54.396;18.590;2023-03-19T01:40:30;8.80;99.90
16728;DHT22;8482;54.396;18.590;2023-03-19T01:43:13;8.80;99.90
16728;DHT22;8482;54.396;18.590;2023-03-19T01:46:00;8.70;99.90
16728;DHT22;8482;54.396;18.590;2023-03-19T01:48:47;8.70;99.90
16728;DHT22;8482;54.396;18.590;2023-03-19T01:51:18;8.60;99.90
16728;DHT22;8482;54.396;18.590;2023-03-19T01:53:52;8.50;99.90
16728;DHT22;8482;54.396;18.590;2023-03-19T01:56:31;8.50;99.90
16728;DHT22;8482;54.396;18.590;2023-03-19T01:59:09;8.50;99.90
16728;DHT22;8482;54.396;18.590;2023-03-19T02:01:52;8.40;99.90
16728;DHT22;8482;54.396;18.590;2023-03-19T02:04:24;8.40;99.90
16728;DHT22;8482;54.396;18.590;2023-03-19T02:06:54;8.30;99.90
16728;DHT22;8482;54.396;18.590;2023-03-19T02:09:21;8.30;99.90
16728;DHT22;8482;54.396;18.590;2023-03-19T02:11:49;8.20;99.90
16728;DHT22;8482;54.396;18.590;2023-03-19T02:14:15;8.20;99.90
16728;DHT22;8482;54.396;18.590;2023-03-19T02:16:42;8.10;99.90
16728;DHT22;8482;54.396;18.590;2023-03-19T02:19:12;8.10;99.90
16728;DHT22;8482;54.396;18.590;2023-03-19T02:21:43;8.00;99.90
16728;DHT22;8482;54.396;18.590;2023-03-19T02:24:19;8.00;99.90
16728;DHT22;8482;54.396;18.590;2023-03-19T02:26:50;7.90;99.90
16728;DHT22;8482;54.396;18.590;2023-03-19T02:29:16;7.90;99.90
16728;DHT22;8482;54.396;18.590;2023-03-19T02:31:42;7.90;99.90
16728;DHT22;8482;54.396;18.590;2023-03-19T02:36:38;7.80;99.90
16728;DHT22;8482;54.396;18.590;2023-03-19T02:39:15;7.70;99.90
16728;DHT22;8482;54.396;18.590;2023-03-19T02:41:47;7.70;99.90
16728;DHT22;8482;54.396;18.590;2023-03-19T02:44:16;7.60;99.90
16728;DHT22;8482;54.396;18.590;2023-03-19T02:46:44;7.60;99.90
16728;DHT22;8482;54.396;18.590;2023-03-19T02:49:10;7.60;99.90
16728;DHT22;8482;54.396;18.590;2023-03-19T02:51:36;7.50;99.90
16728;DHT22;8482;54.396;18.590;2023-03-19T02:54:03;7.50;99.90
16728;DHT22;8482;54.396;18.590;2023-03-19T02:56:28;7.40;99.90
16728;DHT22;8482;54.396;18.590;2023-03-19T02:58:55;7.40;99.90
16728;DHT22;8482;54.396;18.590;2023-03-19T03:01:21;7.40;99.90
16728;DHT22;8482;54.396;18.590;2023-03-19T03:03:47;7.30;99.90
16728;DHT22;8482;54.396;18.590;2023-03-19T03:06:13;7.30;99.90
16728;DHT22;8482;54.396;18.590;2023-03-19T03:08:40;7.20;99.90
16728;DHT22;8482;54.396;18.590;2023-03-19T03:11:06;7.20;99.90
16728;DHT22;8482;54.396;18.590;2023-03-19T03:13:32;7.20;99.90
16728;DHT22;8482;54.396;18.590;2023-03-19T03:15:58;7.20;99.90
16728;DHT22;8482;54.396;18.590;2023-03-19T03:18:24;7.10;99.90
16728;DHT22;8482;54.396;18.590;2023-03-19T03:20:50;7.10;99.90
16728;DHT22;8482;54.396;18.590;2023-03-19T03:23:16;7.10;99.90
16728;DHT22;8482;54.396;18.590;2023-03-19T03:25:42;7.10;99.90
16728;DHT22;8482;54.396;18.590;2023-03-19T03:28:08;7.00;99.90
16728;DHT22;8482;54.396;18.590;2023-03-19T03:30:34;7.00;99.90
16728;DHT22;8482;54.396;18.590;2023-03-19T03:33:01;6.90;99.90
16728;DHT22;8482;54.396;18.590;2023-03-19T03:35:27;6.90;99.90
16728;DHT22;8482;54.396;18.590;2023-03-19T03:37:54;6.90;99.90
16728;DHT22;8482;54.396;18.590;2023-03-19T03:40:20;6.90;99.90
16728;DHT22;8482;54.396;18.590;2023-03-19T03:42:46;6.80;99.90
16728;DHT22;8482;54.396;18.590;2023-03-19T03:45:12;6.80;99.90
16728;DHT22;8482;54.396;18.590;2023-03-19T03:47:38;6.80;99.90
16728;DHT22;8482;54.396;18.590;2023-03-19T03:50:04;6.80;99.90
16728;DHT22;8482;54.396;18.590;2023-03-19T03:52:31;6.80;99.90
16728;DHT22;8482;54.396;18.590;2023-03-19T03:54:59;6.80;99.90
16728;DHT22;8482;54.396;18.590;2023-03-19T03:57:25;6.80;99.90
16728;DHT22;8482;54.396;18.590;2023-03-19T03:59:52;6.80;99.90
16728;DHT22;8482;54.396;18.590;2023-03-19T04:02:18;6.80;99.90
16728;DHT22;8482;54.396;18.590;2023-03-19T04:04:46;6.80;99.90
16728;DHT22;8482;54.396;18.590;2023-03-19T04:07:12;6.80;99.90
16728;DHT22;8482;54.396;18.590;2023-03-19T04:09:38;6.80;99.90
16728;DHT22;8482;54.396;18.590;2023-03-19T04:12:04;6.80;99.90
16728;DHT22;8482;54.396;18.590;2023-03-19T04:14:30;6.80;99.90
16728;DHT22;8482;54.396;18.590;2023-03-19T04:16:56;6.80;99.90
16728;DHT22;8482;54.396;18.590;2023-03-19T04:19:22;6.80;99.90
16728;DHT22;8482;54.396;18.590;2023-03-19T04:21:47;6.70;99.90
16728;DHT22;8482;54.396;18.590;2023-03-19T04:24:13;6.70;99.90
16728;DHT22;8482;54.396;18.590;2023-03-19T04:26:39;6.70;99.90
16728;DHT22;8482;54.396;18.590;2023-03-19T04:29:06;6.70;99.90
16728;DHT22;8482;54.396;18.590;2023-03-19T04:31:35;6.70;99.90
16728;DHT22;8482;54.396;18.590;2023-03-19T04:34:01;6.70;99.90
16728;DHT22;8482;54.396;18.590;2023-03-19T04:36:26;6.70;99.90
16728;DHT22;8482;54.396;18.590;2023-03-19T04:38:53;6.70;99.90
16728;DHT22;8482;54.396;18.590;2023-03-19T04:41:19;6.70;99.90
16728;DHT22;8482;54.396;18.590;2023-03-19T04:43:44;6.70;99.90
16728;DHT22;8482;54.396;18.590;2023-03-19T04:46:10;6.70;99.90
16728;DHT22;8482;54.396;18.590;2023-03-19T04:48:36;6.70;99.90
16728;DHT22;8482;54.396;18.590;2023-03-19T04:51:04;6.70;99.90
16728;DHT22;8482;54.396;18.590;2023-03-19T04:53:33;6.70;99.90
16728;DHT22;8482;54.396;18.590;2023-03-19T04:56:00;6.70;99.90
16728;DHT22;8482;54.396;18.590;2023-03-19T04:58:27;6.60;99.90
16728;DHT22;8482;54.396;18.590;2023-03-19T05:00:53;6.60;99.90
16728;DHT22;8482;54.396;18.590;2023-03-19T05:03:18;6.70;99.90
16728;DHT22;8482;54.396;18.590;2023-03-19T05:05:45;6.60;99.90
16728;DHT22;8482;54.396;18.590;2023-03-19T05:08:10;6.60;99.90
16728;DHT22;8482;54.396;18.590;2023-03-19T05:10:38;6.60;99.90
16728;DHT22;8482;54.396;18.590;2023-03-19T05:13:05;6.70;99.90
16728;DHT22;8482;54.396;18.590;2023-03-19T05:15:32;6.70;99.90
16728;DHT22;8482;54.396;18.590;2023-03-19T05:17:58;6.70;99.90
16728;DHT22;8482;54.396;18.590;2023-03-19T05:20:24;6.70;99.90
16728;DHT22;8482;54.396;18.590;2023-03-19T05:22:51;6.70;99.90
16728;DHT22;8482;54.396;18.590;2023-03-19T05:25:18;6.70;99.90
16728;DHT22;8482;54.396;18.590;2023-03-19T05:27:44;6.80;99.90
16728;DHT22;8482;54.396;18.590;2023-03-19T05:30:10;6.80;99.90
16728;DHT22;8482;54.396;18.590;2023-03-19T05:32:37;6.80;99.90
16728;DHT22;8482;54.396;18.590;2023-03-19T05:35:05;6.80;99.90
16728;DHT22;8482;54.396;18.590;2023-03-19T05:37:31;6.80;99.90
16728;DHT22;8482;54.396;18.590;2023-03-19T05:39:58;6.80;99.90
16728;DHT22;8482;54.396;18.590;2023-03-19T05:42:23;6.80;99.90
16728;DHT22;8482;54.396;18.590;2023-03-19T05:44:49;6.90;99.90
16728;DHT22;8482;54.396;18.590;2023-03-19T05:47:15;6.90;99.90
16728;DHT22;8482;54.396;18.590;2023-03-19T05:49:41;7.00;99.90
16728;DHT22;8482;54.396;18.590;2023-03-19T05:52:07;7.00;99.90
16728;DHT22;8482;54.396;18.590;2023-03-19T05:54:33;7.10;99.90
16728;DHT22;8482;54.396;18.590;2023-03-19T05:57:00;7.20;99.90
16728;DHT22;8482;54.396;18.590;2023-03-19T05:59:26;7.20;99.90
16728;DHT22;8482;54.396;18.590;2023-03-19T06:01:52;7.30;99.90
16728;DHT22;8482;54.396;18.590;2023-03-19T06:04:18;7.30;99.90
16728;DHT22;8482;54.396;18.590;2023-03-19T06:06:44;7.40;99.90
16728;DHT22;8482;54.396;18.590;2023-03-19T06:09:10;7.40;99.90
16728;DHT22;8482;54.396;18.590;2023-03-19T06:11:36;7.50;99.90
16728;DHT22;8482;54.396;18.590;2023-03-19T06:14:04;7.50;99.90
16728;DHT22;8482;54.396;18.590;2023-03-19T06:16:30;7.60;99.90
16728;DHT22;8482;54.396;18.590;2023-03-19T06:18:55;7.70;99.90
16728;DHT22;8482;54.396;18.590;2023-03-19T06:21:21;7.80;99.90
16728;DHT22;8482;54.396;18.590;2023-03-19T06:23:47;7.80;99.90
16728;DHT22;8482;54.396;18.590;2023-03-19T06:26:15;7.90;99.90
16728;DHT22;8482;54.396;18.590;2023-03-19T06:28:41;8.00;99.90
16728;DHT22;8482;54.396;18.590;2023-03-19T06:31:07;8.00;99.90
16728;DHT22;8482;54.396;18.590;2023-03-19T06:33:33;8.10;99.90
16728;DHT22;8482;54.396;18.590;2023-03-19T06:35:59;8.20;99.90
16728;DHT22;8482;54.396;18.590;2023-03-19T06:38:25;8.20;99.90
16728;DHT22;8482;54.396;18.590;2023-03-19T06:40:51;8.30;99.90
16728;DHT22;8482;54.396;18.590;2023-03-19T06:43:17;8.30;99.90
16728;DHT22;8482;54.396;18.590;2023-03-19T06:45:43;8.40;99.90
16728;DHT22;8482;54.396;18.590;2023-03-19T06:48:08;8.50;99.90
16728;DHT22;8482;54.396;18.590;2023-03-19T06:50:34;8.50;99.90
16728;DHT22;8482;54.396;18.590;2023-03-19T06:53:00;8.60;99.90
16728;DHT22;8482;54.396;18.590;2023-03-19T06:55:26;8.60;99.90
16728;DHT22;8482;54.396;18.590;2023-03-19T06:57:53;8.70;99.90
16728;DHT22;8482;54.396;18.590;2023-03-19T07:00:20;8.80;99.90
16728;DHT22;8482;54.396;18.590;2023-03-19T07:02:46;8.90;99.90
16728;DHT22;8482;54.396;18.590;2023-03-19T07:05:12;9.00;99.90
16728;DHT22;8482;54.396;18.590;2023-03-19T07:07:38;9.00;99.90
16728;DHT22;8482;54.396;18.590;2023-03-19T07:10:04;9.10;99.90
16728;DHT22;8482;54.396;18.590;2023-03-19T07:12:31;9.20;99.90
16728;DHT22;8482;54.396;18.590;2023-03-19T07:14:56;9.30;99.90
16728;DHT22;8482;54.396;18.590;2023-03-19T07:17:23;9.30;99.90
16728;DHT22;8482;54.396;18.590;2023-03-19T07:19:50;9.40;99.90
16728;DHT22;8482;54.396;18.590;2023-03-19T07:22:16;9.40;99.90
16728;DHT22;8482;54.396;18.590;2023-03-19T07:24:43;9.50;99.90
16728;DHT22;8482;54.396;18.590;2023-03-19T07:27:09;9.60;99.90
16728;DHT22;8482;54.396;18.590;2023-03-19T07:29:35;9.70;99.90
16728;DHT22;8482;54.396;18.590;2023-03-19T07:32:01;9.70;99.90
16728;DHT22;8482;54.396;18.590;2023-03-19T07:34:27;9.80;99.90
16728;DHT22;8482;54.396;18.590;2023-03-19T07:36:53;9.90;99.90
16728;DHT22;8482;54.396;18.590;2023-03-19T07:39:19;9.90;99.90
16728;DHT22;8482;54.396;18.590;2023-03-19T07:41:45;10.00;99.90
16728;DHT22;8482;54.396;18.590;2023-03-19T07:44:15;10.00;99.90
16728;DHT22;8482;54.396;18.590;2023-03-19T07:46:41;10.10;99.90
16728;DHT22;8482;54.396;18.590;2023-03-19T07:49:07;10.20;99.90
16728;DHT22;8482;54.396;18.590;2023-03-19T07:51:33;10.20;99.90
16728;DHT22;8482;54.396;18.590;2023-03-19T07:54:00;10.30;99.90
16728;DHT22;8482;54.396;18.590;2023-03-19T07:56:26;10.40;99.90
16728;DHT22;8482;54.396;18.590;2023-03-19T07:58:52;10.50;99.90
16728;DHT22;8482;54.396;18.590;2023-03-19T08:01:18;10.50;99.90
16728;DHT22;8482;54.396;18.590;2023-03-19T08:03:44;10.60;99.90
16728;DHT22;8482;54.396;18.590;2023-03-19T08:06:10;10.70;99.90
16728;DHT22;8482;54.396;18.590;2023-03-19T08:08:36;10.80;99.90
16728;DHT22;8482;54.396;18.590;2023-03-19T08:11:02;10.90;99.90
16728;DHT22;8482;54.396;18.590;2023-03-19T08:13:28;10.90;99.90
16728;DHT22;8482;54.396;18.590;2023-03-19T08:15:54;11.00;99.90
16728;DHT22;8482;54.396;18.590;2023-03-19T08:18:21;11.10;99.90
16728;DHT22;8482;54.396;18.590;2023-03-19T08:20:47;11.30;99.90
16728;DHT22;8482;54.396;18.590;2023-03-19T08:23:14;11.40;99.90
16728;DHT22;8482;54.396;18.590;2023-03-19T08:25:40;11.50;99.90
16728;DHT22;8482;54.396;18.590;2023-03-19T08:28:06;11.60;99.90
16728;DHT22;8482;54.396;18.590;2023-03-19T08:30:37;11.70;99.90
16728;DHT22;8482;54.396;18.590;2023-03-19T08:33:04;11.90;99.90
16728;DHT22;8482;54.396;18.590;2023-03-19T08:35:31;11.90;99.90
16728;DHT22;8482;54.396;18.590;2023-03-19T08:37:56;12.00;99.90
16728;DHT22;8482;54.396;18.590;2023-03-19T08:40:23;12.10;99.90
16728;DHT22;8482;54.396;18.590;2023-03-19T08:42:49;12.20;99.90
16728;DHT22;8482;54.396;18.590;2023-03-19T08:45:15;12.30;99.90
16728;DHT22;8482;54.396;18.590;2023-03-19T08:47:42;12.30;99.90
16728;DHT22;8482;54.396;18.590;2023-03-19T08:50:09;12.40;99.90
16728;DHT22;8482;54.396;18.590;2023-03-19T08:52:36;12.50;99.90
16728;DHT22;8482;54.396;18.590;2023-03-19T08:55:02;12.60;99.90
16728;DHT22;8482;54.396;18.590;2023-03-19T08:57:30;12.70;99.90
16728;DHT22;8482;54.396;18.590;2023-03-19T08:59:56;12.80;99.90
16728;DHT22;8482;54.396;18.590;2023-03-19T09:02:22;12.90;99.90
16728;DHT22;8482;54.396;18.590;2023-03-19T09:04:48;12.90;99.90
16728;DHT22;8482;54.396;18.590;2023-03-19T09:07:14;13.00;99.90
16728;DHT22;8482;54.396;18.590;2023-03-19T09:09:42;13.10;99.90
16728;DHT22;8482;54.396;18.590;2023-03-19T09:12:10;13.30;99.90
16728;DHT22;8482;54.396;18.590;2023-03-19T09:14:38;13.40;99.90
16728;DHT22;8482;54.396;18.590;2023-03-19T09:17:05;13.60;99.90
16728;DHT22;8482;54.396;18.590;2023-03-19T09:19:32;13.70;99.90
16728;DHT22;8482;54.396;18.590;2023-03-19T09:21:59;13.80;99.90
16728;DHT22;8482;54.396;18.590;2023-03-19T09:24:25;14.00;99.90
16728;DHT22;8482;54.396;18.590;2023-03-19T09:26:52;14.10;99.60
16728;DHT22;8482;54.396;18.590;2023-03-19T09:29:18;14.30;99.30
16728;DHT22;8482;54.396;18.590;2023-03-19T09:31:44;14.50;99.10
16728;DHT22;8482;54.396;18.590;2023-03-19T09:34:09;14.60;98.60
16728;DHT22;8482;54.396;18.590;2023-03-19T09:36:36;14.70;98.20
16728;DHT22;8482;54.396;18.590;2023-03-19T09:39:04;14.90;97.70
16728;DHT22;8482;54.396;18.590;2023-03-19T09:41:44;15.00;97.30
16728;DHT22;8482;54.396;18.590;2023-03-19T09:44:20;15.20;97.00
16728;DHT22;8482;54.396;18.590;2023-03-19T09:47:03;15.30;96.50
16728;DHT22;8482;54.396;18.590;2023-03-19T09:49:43;15.50;96.00
16728;DHT22;8482;54.396;18.590;2023-03-19T09:52:19;15.70;95.30
16728;DHT22;8482;54.396;18.590;2023-03-19T09:57:57;15.90;94.30
16728;DHT22;8482;54.396;18.590;2023-03-19T10:00:29;16.10;94.10
16728;DHT22;8482;54.396;18.590;2023-03-19T10:08:57;16.50;93.10
16728;DHT22;8482;54.396;18.590;2023-03-19T10:15:03;16.70;92.50
16728;DHT22;8482;54.396;18.590;2023-03-19T10:17:51;16.80;92.40
16728;DHT22;8482;54.396;18.590;2023-03-19T10:20:49;16.80;92.20
16728;DHT22;8482;54.396;18.590;2023-03-19T10:23:38;16.90;92.10
16728;DHT22;8482;54.396;18.590;2023-03-19T10:26:21;17.00;91.60
16728;DHT22;8482;54.396;18.590;2023-03-19T10:29:14;17.10;91.10
16728;DHT22;8482;54.396;18.590;2023-03-19T10:31:51;17.20;90.80
16728;DHT22;8482;54.396;18.590;2023-03-19T10:34:29;17.30;90.60
16728;DHT22;8482;54.396;18.590;2023-03-19T10:39:46;17.60;90.20
16728;DHT22;8482;54.396;18.590;2023-03-19T10:42:37;17.60;90.00
16728;DHT22;8482;54.396;18.590;2023-03-19T10:45:38;17.70;89.70
16728;DHT22;8482;54.396;18.590;2023-03-19T10:48:05;17.80;89.20
16728;DHT22;8482;54.396;18.590;2023-03-19T10:50:47;17.80;88.70
16728;DHT22;8482;54.396;18.590;2023-03-19T10:56:06;18.00;88.40
16728;DHT22;8482;54.396;18.590;2023-03-19T11:01:27;18.10;87.40
16728;DHT22;8482;54.396;18.590;2023-03-19T11:04:00;18.10;86.80
16728;DHT22;8482;54.396;18.590;2023-03-19T11:06:35;18.20;86.60
16728;DHT22;8482;54.396;18.590;2023-03-19T11:11:45;18.40;85.80
16728;DHT22;8482;54.396;18.590;2023-03-19T11:16:55;18.70;83.90
16728;DHT22;8482;54.396;18.590;2023-03-19T11:19:38;18.80;83.30
16728;DHT22;8482;54.396;18.590;2023-03-19T11:22:26;18.90;82.60
16728;DHT22;8482;54.396;18.590;2023-03-19T11:25:48;19.00;81.70
16728;DHT22;8482;54.396;18.590;2023-03-19T11:28:00;19.00;81.00
16728;DHT22;8482;54.396;18.590;2023-03-19T11:40:13;19.00;80.20
16728;DHT22;8482;54.396;18.590;2023-03-19T11:46:13;19.20;79.70
16728;DHT22;8482;54.396;18.590;2023-03-19T11:51:49;19.50;79.30
16728;DHT22;8482;54.396;18.590;2023-03-19T11:57:13;19.90;78.70
16728;DHT22;8482;54.396;18.590;2023-03-19T12:05:56;20.30;76.30
16728;DHT22;8482;54.396;18.590;2023-03-19T12:08:49;20.50;75.80
16728;DHT22;8482;54.396;18.590;2023-03-19T12:11:46;20.60;75.50
16728;DHT22;8482;54.396;18.590;2023-03-19T12:28:27;21.50;72.70
16728;DHT22;8482;54.396;18.590;2023-03-19T12:33:53;21.70;71.60
16728;DHT22;8482;54.396;18.590;2023-03-19T12:36:53;21.80;71.40
16728;DHT22;8482;54.396;18.590;2023-03-19T12:39:34;22.00;70.90
16728;DHT22;8482;54.396;18.590;2023-03-19T12:42:08;22.10;70.70
16728;DHT22;8482;54.396;18.590;2023-03-19T12:44:45;22.30;70.60
16728;DHT22;8482;54.396;18.590;2023-03-19T12:47:35;22.40;70.80
16728;DHT22;8482;54.396;18.590;2023-03-19T12:50:12;22.50;68.80
16728;DHT22;8482;54.396;18.590;2023-03-19T12:52:49;22.70;68.60
16728;DHT22;8482;54.396;18.590;2023-03-19T13:00:38;22.90;67.30
16728;DHT22;8482;54.396;18.590;2023-03-19T13:09:03;22.80;68.10
16728;DHT22;8482;54.396;18.590;2023-03-19T13:17:56;22.60;68.50
16728;DHT22;8482;54.396;18.590;2023-03-19T13:23:47;22.70;68.60
16728;DHT22;8482;54.396;18.590;2023-03-19T13:26:22;22.90;68.50
16728;DHT22;8482;54.396;18.590;2023-03-19T13:29:08;22.80;68.00
16728;DHT22;8482;54.396;18.590;2023-03-19T13:31:41;23.20;67.90
16728;DHT22;8482;54.396;18.590;2023-03-19T13:36:45;24.50;65.10
16728;DHT22;8482;54.396;18.590;2023-03-19T13:39:18;24.60;64.60
16728;DHT22;8482;54.396;18.590;2023-03-19T13:44:53;24.00;65.20
16728;DHT22;8482;54.396;18.590;2023-03-19T13:52:53;22.70;67.30
16728;DHT22;8482;54.396;18.590;2023-03-19T13:55:51;22.30;67.90
16728;DHT22;8482;54.396;18.590;2023-03-19T13:58:27;21.90;69.10
16728;DHT22;8482;54.396;18.590;2023-03-19T14:03:57;21.20;71.50
16728;DHT22;8482;54.396;18.590;2023-03-19T14:07:08;21.00;72.40
16728;DHT22;8482;54.396;18.590;2023-03-19T14:12:50;20.40;73.40
16728;DHT22;8482;54.396;18.590;2023-03-19T14:15:27;20.20;73.90
16728;DHT22;8482;54.396;18.590;2023-03-19T14:17:59;20.10;74.50
16728;DHT22;8482;54.396;18.590;2023-03-19T14:20:57;20.00;74.80
16728;DHT22;8482;54.396;18.590;2023-03-19T14:23:27;19.90;76.30
16728;DHT22;8482;54.396;18.590;2023-03-19T14:26:05;19.70;76.70
16728;DHT22;8482;54.396;18.590;2023-03-19T14:31:47;19.20;74.30
16728;DHT22;8482;54.396;18.590;2023-03-19T14:34:19;18.80;74.30
16728;DHT22;8482;54.396;18.590;2023-03-19T14:37:03;18.50;75.20
16728;DHT22;8482;54.396;18.590;2023-03-19T14:46:00;17.60;77.80
16728;DHT22;8482;54.396;18.590;2023-03-19T14:49:01;17.30;78.70
16728;DHT22;8482;54.396;18.590;2023-03-19T14:51:54;17.00;79.20
16728;DHT22;8482;54.396;18.590;2023-03-19T14:54:45;16.70;80.00
16728;DHT22;8482;54.396;18.590;2023-03-19T14:57:24;16.50;80.80
16728;DHT22;8482;54.396;18.590;2023-03-19T14:59:53;16.20;81.10
16728;DHT22;8482;54.396;18.590;2023-03-19T15:05:23;15.90;82.60
16728;DHT22;8482;54.396;18.590;2023-03-19T15:07:59;15.80;83.30
16728;DHT22;8482;54.396;18.590;2023-03-19T15:10:31;15.80;83.50
16728;DHT22;8482;54.396;18.590;2023-03-19T15:16:32;16.00;83.40
16728;DHT22;8482;54.396;18.590;2023-03-19T15:19:11;16.10;83.00
16728;DHT22;8482;54.396;18.590;2023-03-19T15:21:38;16.00;83.10
16728;DHT22;8482;54.396;18.590;2023-03-19T15:24:05;15.90;82.90
16728;DHT22;8482;54.396;18.590;2023-03-19T15:26:39;15.80;83.30
16728;DHT22;8482;54.396;18.590;2023-03-19T15:29:04;15.70;83.70
16728;DHT22;8482;54.396;18.590;2023-03-19T15:31:45;15.60;84.30
16728;DHT22;8482;54.396;18.590;2023-03-19T15:34:24;15.40;85.00
16728;DHT22;8482;54.396;18.590;2023-03-19T15:37:12;15.30;85.60
16728;DHT22;8482;54.396;18.590;2023-03-19T15:39:44;15.20;86.00
16728;DHT22;8482;54.396;18.590;2023-03-19T15:42:15;15.10;86.10
16728;DHT22;8482;54.396;18.590;2023-03-19T15:48:04;14.80;87.00
16728;DHT22;8482;54.396;18.590;2023-03-19T15:50:45;14.60;87.70
16728;DHT22;8482;54.396;18.590;2023-03-19T15:53:25;14.50;88.30
16728;DHT22;8482;54.396;18.590;2023-03-19T15:55:55;14.30;88.70
16728;DHT22;8482;54.396;18.590;2023-03-19T15:58:25;14.20;89.40
16728;DHT22;8482;54.396;18.590;2023-03-19T16:01:06;14.00;90.10
16728;DHT22;8482;54.396;18.590;2023-03-19T16:06:48;13.80;90.90
16728;DHT22;8482;54.396;18.590;2023-03-19T16:09:26;13.70;91.40
16728;DHT22;8482;54.396;18.590;2023-03-19T16:11:58;13.60;91.60
16728;DHT22;8482;54.396;18.590;2023-03-19T16:14:38;13.50;92.40
16728;DHT22;8482;54.396;18.590;2023-03-19T16:17:12;13.50;92.50
16728;DHT22;8482;54.396;18.590;2023-03-19T16:19:52;13.40;92.90
16728;DHT22;8482;54.396;18.590;2023-03-19T16:22:32;13.40;93.20
16728;DHT22;8482;54.396;18.590;2023-03-19T16:24:58;13.30;93.60
16728;DHT22;8482;54.396;18.590;2023-03-19T16:27:37;13.30;93.80
16728;DHT22;8482;54.396;18.590;2023-03-19T16:30:25;13.20;94.00
16728;DHT22;8482;54.396;18.590;2023-03-19T16:32:58;13.20;94.40
16728;DHT22;8482;54.396;18.590;2023-03-19T16:35:27;13.20;94.90
16728;DHT22;8482;54.396;18.590;2023-03-19T16:38:26;13.10;94.90
16728;DHT22;8482;54.396;18.590;2023-03-19T16:44:12;13.00;95.20
16728;DHT22;8482;54.396;18.590;2023-03-19T16:46:42;13.00;95.40
16728;DHT22;8482;54.396;18.590;2023-03-19T16:49:08;12.90;95.60
16728;DHT22;8482;54.396;18.590;2023-03-19T16:51:34;12.90;95.70
16728;DHT22;8482;54.396;18.590;2023-03-19T16:54:02;12.80;95.80
16728;DHT22;8482;54.396;18.590;2023-03-19T16:56:29;12.80;96.10
16728;DHT22;8482;54.396;18.590;2023-03-19T16:58:55;12.80;96.20
16728;DHT22;8482;54.396;18.590;2023-03-19T17:01:23;12.80;96.50
16728;DHT22;8482;54.396;18.590;2023-03-19T17:03:50;12.80;96.60
16728;DHT22;8482;54.396;18.590;2023-03-19T17:06:17;12.80;96.70
16728;DHT22;8482;54.396;18.590;2023-03-19T17:08:45;12.70;96.90
16728;DHT22;8482;54.396;18.590;2023-03-19T17:11:26;12.70;97.10
16728;DHT22;8482;54.396;18.590;2023-03-19T17:13:57;12.70;97.30
16728;DHT22;8482;54.396;18.590;2023-03-19T17:16:25;12.70;97.50
16728;DHT22;8482;54.396;18.590;2023-03-19T17:18:52;12.60;97.80
16728;DHT22;8482;54.396;18.590;2023-03-19T17:21:23;12.60;97.50
16728;DHT22;8482;54.396;18.590;2023-03-19T17:23:52;12.60;97.50
16728;DHT22;8482;54.396;18.590;2023-03-19T17:26:27;12.50;97.60
16728;DHT22;8482;54.396;18.590;2023-03-19T17:28:55;12.60;97.70
16728;DHT22;8482;54.396;18.590;2023-03-19T17:31:31;12.50;97.80
16728;DHT22;8482;54.396;18.590;2023-03-19T17:36:31;12.50;98.10
16728;DHT22;8482;54.396;18.590;2023-03-19T17:38:58;12.40;98.10
16728;DHT22;8482;54.396;18.590;2023-03-19T17:41:24;12.40;98.00
16728;DHT22;8482;54.396;18.590;2023-03-19T17:43:50;12.40;98.10
16728;DHT22;8482;54.396;18.590;2023-03-19T17:46:19;12.30;98.10
16728;DHT22;8482;54.396;18.590;2023-03-19T17:48:48;12.30;98.40
16728;DHT22;8482;54.396;18.590;2023-03-19T17:51:15;12.30;98.50
16728;DHT22;8482;54.396;18.590;2023-03-19T17:53:45;12.20;98.50
16728;DHT22;8482;54.396;18.590;2023-03-19T17:56:16;12.20;98.60
16728;DHT22;8482;54.396;18.590;2023-03-19T17:58:44;12.20;98.60
16728;DHT22;8482;54.396;18.590;2023-03-19T18:01:21;12.10;98.80
16728;DHT22;8482;54.396;18.590;2023-03-19T18:03:51;12.10;99.00
16728;DHT22;8482;54.396;18.590;2023-03-19T18:06:22;12.10;99.20
16728;DHT22;8482;54.396;18.590;2023-03-19T18:08:50;12.10;99.40
16728;DHT22;8482;54.396;18.590;2023-03-19T18:11:16;12.10;99.60
16728;DHT22;8482;54.396;18.590;2023-03-19T18:13:42;12.10;99.60